Alto, New Mexico
Current Conditions -  °F | °C
As of 12:55 AM on Sunday 26 Oct 2014 (Local Time) from KSRR Reporting Station
Clear Clear  
Wind Chill: 57°   Ceiling: Unl
Heat Index: 57°   Visibility: 10mi
Dew Point: 37°   Wind: 8mph
Humidity: 48%   Direction: 270°W
Pressure: 30.28"   Gusts: NA
Location:  33.39°N, 105.69°W
Report Text: KSRR 260655Z AUTO 27007KT 10SM CLR 14/03 A3028 RMK AO2
Loading
Personal Weather Stations






























Interactive Weather Map New forecast layout! Learn more

10-Day Weather Forecast

Advertisements
Track Severe Weather on mobile